Rotterdam Express — DMRX — position and weather

sailwx.info

Track history (hours):
 
Tides and Currents Weather Stations Pressure Air Temp Water Temp Dewpoint Dewpoint Depression Visibility Wind Speed Wind Dir Waves Ship Positions

Rotterdam Express

Last reported at 2015-May-24 18:00 UTC. Time now 2015-May-24 19:25 UTC.
Position N 35°18' W 027°24'.

Length 294 m; beam 32.2 m; draft 13.6 m.

Type: Ship. MMSI: 211335760.

Wind from 050 at 12 knots

Waves 0.5 meters (2 feet)

Barometer 1030.8 mb
Air temperature 21.6 ° C
Visibility: greater than 10.8 NM
Dewpoint 13.0 ° C
Water temperature 20.0 ° C

Date/timePositionNaut miles runAvg speedWind from/ knotsBaromVisibWave heightAir tempDewpointWater temp
2015-May-24 18:00N 35°18' W 027°24'17616.3 050 / 121030.810.8 0.521.613.020.0
2015-May-24 07:12N 35°41' W 023°50'2117.2
2015-May-24 06:00N 35°42' W 023°24'20016.7 050 / 171029.610.8 1.017.414.119.0
2015-May-23 18:00N 36°00' W 019°18'18915.8 010 / 251027.910.8 1.518.012.018.0
2015-May-23 06:00N 36°06' W 015°24'23515.7 010 / 301024.210.8 2.016.110.418.0
2015-May-22 15:03N 36°08' W 010°34'23816.1
2015-May-22 00:15N 35°58' W 005°40'1014.3
2015-May-21 23:34N 36°00' W 005°28'1313.1
2015-May-21 22:34N 36°04' W 005°12'13715.0
2015-May-21 13:26N 36°24' W 002°24'4019.7
2015-May-21 11:25N 36°46' W 001°43'4320.5
2015-May-21 09:19N 37°15' W 001°03'1620.3
2015-May-21 08:33N 37°25' W 000°48'1818.5
2015-May-21 07:33N 37°38' W 000°31'1615.7
2015-May-21 06:33N 37°51' W 000°21'9212.7
2015-May-20 23:19N 39°23' W 000°14'6 7.8
2015-May-20 22:33N 39°27' W 000°19'0 0.1
2015-May-20 21:33N 39°27' W 000°19'0 0.0
2015-May-20 20:32N 39°27' W 000°19'0 0.0
2015-May-20 19:33N 39°27' W 000°19'0 0.0
2015-May-20 18:33N 39°27' W 000°19'0 0.0
2015-May-20 17:33N 39°27' W 000°19'0 0.0
2015-May-20 16:32N 39°27' W 000°19'0 0.0
2015-May-20 15:22N 39°27' W 000°19'0 0.0
2015-May-20 14:31N 39°27' W 000°19'0 0.0
2015-May-20 13:31N 39°27' W 000°19'0 0.0
2015-May-20 12:28N 39°27' W 000°19'0 0.0
2015-May-20 11:31N 39°27' W 000°19'0 0.0
2015-May-20 10:31N 39°27' W 000°19'0 0.0
2015-May-20 09:31N 39°27' W 000°19'0 0.0
2015-May-20 08:31N 39°27' W 000°19'0 0.0
2015-May-20 07:33N 39°27' W 000°19'0 0.0
2015-May-20 06:33N 39°27' W 000°19'0 0.0
2015-May-20 05:33N 39°27' W 000°19'0 0.0
2015-May-20 04:31N 39°27' W 000°19'0 0.0
2015-May-20 03:31N 39°27' W 000°19'0 0.0
2015-May-20 02:31N 39°27' W 000°19'0 0.0
2015-May-20 01:31N 39°27' W 000°19'0 0.0
2015-May-20 00:33N 39°27' W 000°19'0 0.0
2015-May-19 23:33N 39°27' W 000°19'0 0.0
2015-May-19 22:33N 39°27' W 000°19'4 3.8
2015-May-19 21:33N 39°24' W 000°17'0 0.2
2015-May-19 20:33N 39°23' W 000°16'0 0.0
2015-May-19 19:06N 39°23' W 000°16'0 0.0
2015-May-19 18:30N 39°23' W 000°16'0 0.1
2015-May-19 17:33N 39°24' W 000°16'0 0.0
2015-May-19 16:30N 39°24' W 000°16'0 0.1
2015-May-19 15:30N 39°24' W 000°16'0 0.1
2015-May-19 12:03N 39°24' W 000°16'4 7.9
2015-May-19 11:34N 39°24' W 000°11'425 9.4
2015-May-17 14:32N 43°26' E 007°36'2015.8
2015-May-17 13:16N 43°38' E 007°57'1216.7
2015-May-17 12:33N 43°46' E 008°10'1716.9
2015-May-17 11:33N 43°59' E 008°25'1716.8
2015-May-17 10:33N 44°14' E 008°36'1313.2
2015-May-17 09:33N 44°25' E 008°46'1 1.1
2015-May-17 08:23N 44°25' E 008°47'0 0.0
2015-May-17 07:29N 44°25' E 008°47'0 0.0
2015-May-17 06:29N 44°25' E 008°47'0 0.0
2015-May-17 05:26N 44°25' E 008°47'0 0.0
2015-May-17 04:29N 44°25' E 008°47'0 0.0
2015-May-17 03:32N 44°25' E 008°47'0 0.0
2015-May-17 02:32N 44°25' E 008°47'0 0.0
2015-May-17 01:32N 44°25' E 008°47'0 0.0
2015-May-17 00:32N 44°25' E 008°47'0 0.0
2015-May-16 23:32N 44°25' E 008°47'0 0.0
2015-May-16 22:29N 44°25' E 008°47'0 0.0
2015-May-16 21:29N 44°25' E 008°47'0 0.0
2015-May-16 20:27N 44°25' E 008°47'0 0.0
2015-May-16 19:31N 44°25' E 008°47'0 0.0
2015-May-16 18:31N 44°25' E 008°47'0 0.0
2015-May-16 17:31N 44°25' E 008°47'0 0.0
2015-May-16 16:31N 44°25' E 008°47'0 0.0
2015-May-16 15:28N 44°25' E 008°47'0 0.0
2015-May-16 14:25N 44°25' E 008°47'0 0.0
2015-May-16 13:31N 44°25' E 008°47'0 0.0
2015-May-16 12:31N 44°25' E 008°47'0 0.0
2015-May-16 11:31N 44°25' E 008°47'1 1.3
2015-May-16 10:33N 44°25' E 008°46'3 3.3
2015-May-16 09:33N 44°22' E 008°43'10 9.6
2015-May-16 08:33N 44°13' E 008°45'1111.2
2015-May-16 07:33N 44°02' E 008°49'1 1.3
2015-May-16 06:33N 44°03' E 008°49'1 1.3
2015-May-16 05:33N 44°05' E 008°49'1 1.4
2015-May-16 04:33N 44°06' E 008°49'1 1.4
2015-May-16 03:33N 44°08' E 008°49'1 1.3
2015-May-16 02:33N 44°09' E 008°48'1 1.3
2015-May-16 01:33N 44°10' E 008°48'1 1.1
2015-May-16 00:33N 44°11' E 008°48'1 0.7
2015-May-15 23:33N 44°12' E 008°48'1 0.6
2015-May-15 22:33N 44°13' E 008°49'0 0.5
2015-May-15 21:33N 44°13' E 008°49'1 0.8
2015-May-15 20:33N 44°13' E 008°50'1 1.0
2015-May-15 19:33N 44°13' E 008°51'1 0.9
2015-May-15 18:33N 44°13' E 008°53'6 6.0
2015-May-15 17:33N 44°07' E 008°56'1515.1
2015-May-15 16:33N 43°55' E 009°09'1414.4
2015-May-15 15:33N 43°49' E 009°27'1414.3
2015-May-15 14:33N 43°43' E 009°45'9 9.3
2015-May-15 13:33N 43°36' E 009°54'1313.3
2015-May-15 12:33N 43°30' E 010°10'7 7.2
2015-May-15 11:33N 43°34' E 010°18'1 0.5
2015-May-15 10:29N 43°35' E 010°18'0 0.0
2015-May-15 09:31N 43°35' E 010°18'0 0.0
2015-May-15 08:31N 43°35' E 010°18'0 0.0
2015-May-15 07:31N 43°35' E 010°18'0 0.0
2015-May-15 06:31N 43°35' E 010°18'0 0.0
2015-May-15 05:31N 43°35' E 010°18'0 0.0
2015-May-15 04:31N 43°35' E 010°18'0 0.0
2015-May-15 03:31N 43°35' E 010°18'0 0.0
2015-May-15 02:24N 43°35' E 010°18'0 0.0
2015-May-15 01:33N 43°35' E 010°18'0 0.0
2015-May-15 00:33N 43°35' E 010°18'0 0.0
2015-May-14 23:33N 43°35' E 010°18'0 0.0
2015-May-14 22:33N 43°35' E 010°18'0 0.0
2015-May-14 21:31N 43°35' E 010°18'0 0.0
2015-May-14 20:33N 43°35' E 010°18'0 0.0
2015-May-14 19:33N 43°35' E 010°18'0 0.0
2015-May-14 18:32N 43°35' E 010°18'  
Track history (hours):
 
Tides and Currents Weather Stations Pressure Air Temp Water Temp Dewpoint Dewpoint Depression Visibility Wind Speed Wind Dir Waves Ship Positions

Rotterdam Express

Last reported at 2015-May-24 18:00 UTC. Time now 2015-May-24 19:25 UTC.
Position N 35°18' W 027°24'.

Length 294 m; beam 32.2 m; draft 13.6 m.

Type: Ship. MMSI: 211335760.

Wind from 050 at 12 knots

Waves 0.5 meters (2 feet)

Barometer 1030.8 mb
Air temperature 21.6 ° C
Visibility: greater than 10.8 NM
Dewpoint 13.0 ° C
Water temperature 20.0 ° C

Date/timePositionNaut miles runAvg speedWind from/ knotsBaromVisibWave heightAir tempDewpointWater temp
2015-May-24 18:00N 35°18' W 027°24'17616.3 050 / 121030.810.8 0.521.613.020.0
2015-May-24 07:12N 35°41' W 023°50'2117.2
2015-May-24 06:00N 35°42' W 023°24'20016.7 050 / 171029.610.8 1.017.414.119.0
2015-May-23 18:00N 36°00' W 019°18'18915.8 010 / 251027.910.8 1.518.012.018.0
2015-May-23 06:00N 36°06' W 015°24'23515.7 010 / 301024.210.8 2.016.110.418.0
2015-May-22 15:03N 36°08' W 010°34'23816.1
2015-May-22 00:15N 35°58' W 005°40'1014.3
2015-May-21 23:34N 36°00' W 005°28'1313.1
2015-May-21 22:34N 36°04' W 005°12'13715.0
2015-May-21 13:26N 36°24' W 002°24'4019.7
2015-May-21 11:25N 36°46' W 001°43'4320.5
2015-May-21 09:19N 37°15' W 001°03'1620.3
2015-May-21 08:33N 37°25' W 000°48'1818.5
2015-May-21 07:33N 37°38' W 000°31'1615.7
2015-May-21 06:33N 37°51' W 000°21'9212.7
2015-May-20 23:19N 39°23' W 000°14'6 7.8
2015-May-20 22:33N 39°27' W 000°19'0 0.1
2015-May-20 21:33N 39°27' W 000°19'0 0.0
2015-May-20 20:32N 39°27' W 000°19'0 0.0
2015-May-20 19:33N 39°27' W 000°19'0 0.0
2015-May-20 18:33N 39°27' W 000°19'0 0.0
2015-May-20 17:33N 39°27' W 000°19'0 0.0
2015-May-20 16:32N 39°27' W 000°19'0 0.0
2015-May-20 15:22N 39°27' W 000°19'0 0.0
2015-May-20 14:31N 39°27' W 000°19'0 0.0
2015-May-20 13:31N 39°27' W 000°19'0 0.0
2015-May-20 12:28N 39°27' W 000°19'0 0.0
2015-May-20 11:31N 39°27' W 000°19'0 0.0
2015-May-20 10:31N 39°27' W 000°19'0 0.0
2015-May-20 09:31N 39°27' W 000°19'0 0.0
2015-May-20 08:31N 39°27' W 000°19'0 0.0
2015-May-20 07:33N 39°27' W 000°19'0 0.0
2015-May-20 06:33N 39°27' W 000°19'0 0.0
2015-May-20 05:33N 39°27' W 000°19'0 0.0
2015-May-20 04:31N 39°27' W 000°19'0 0.0
2015-May-20 03:31N 39°27' W 000°19'0 0.0
2015-May-20 02:31N 39°27' W 000°19'0 0.0
2015-May-20 01:31N 39°27' W 000°19'0 0.0
2015-May-20 00:33N 39°27' W 000°19'0 0.0
2015-May-19 23:33N 39°27' W 000°19'0 0.0
2015-May-19 22:33N 39°27' W 000°19'4 3.8
2015-May-19 21:33N 39°24' W 000°17'0 0.2
2015-May-19 20:33N 39°23' W 000°16'0 0.0
2015-May-19 19:06N 39°23' W 000°16'0 0.0
2015-May-19 18:30N 39°23' W 000°16'0 0.1
2015-May-19 17:33N 39°24' W 000°16'0 0.0
2015-May-19 16:30N 39°24' W 000°16'0 0.1
2015-May-19 15:30N 39°24' W 000°16'0 0.1
2015-May-19 12:03N 39°24' W 000°16'4 7.9
2015-May-19 11:34N 39°24' W 000°11'425 9.4
2015-May-17 14:32N 43°26' E 007°36'2015.8
2015-May-17 13:16N 43°38' E 007°57'1216.7
2015-May-17 12:33N 43°46' E 008°10'1716.9
2015-May-17 11:33N 43°59' E 008°25'1716.8
2015-May-17 10:33N 44°14' E 008°36'1313.2
2015-May-17 09:33N 44°25' E 008°46'1 1.1
2015-May-17 08:23N 44°25' E 008°47'0 0.0
2015-May-17 07:29N 44°25' E 008°47'0 0.0
2015-May-17 06:29N 44°25' E 008°47'0 0.0
2015-May-17 05:26N 44°25' E 008°47'0 0.0
2015-May-17 04:29N 44°25' E 008°47'0 0.0
2015-May-17 03:32N 44°25' E 008°47'0 0.0
2015-May-17 02:32N 44°25' E 008°47'0 0.0
2015-May-17 01:32N 44°25' E 008°47'0 0.0
2015-May-17 00:32N 44°25' E 008°47'0 0.0
2015-May-16 23:32N 44°25' E 008°47'0 0.0
2015-May-16 22:29N 44°25' E 008°47'0 0.0
2015-May-16 21:29N 44°25' E 008°47'0 0.0
2015-May-16 20:27N 44°25' E 008°47'0 0.0
2015-May-16 19:31N 44°25' E 008°47'0 0.0
2015-May-16 18:31N 44°25' E 008°47'0 0.0
2015-May-16 17:31N 44°25' E 008°47'0 0.0
2015-May-16 16:31N 44°25' E 008°47'0 0.0
2015-May-16 15:28N 44°25' E 008°47'0 0.0
2015-May-16 14:25N 44°25' E 008°47'0 0.0
2015-May-16 13:31N 44°25' E 008°47'0 0.0
2015-May-16 12:31N 44°25' E 008°47'0 0.0
2015-May-16 11:31N 44°25' E 008°47'1 1.3
2015-May-16 10:33N 44°25' E 008°46'3 3.3
2015-May-16 09:33N 44°22' E 008°43'10 9.6
2015-May-16 08:33N 44°13' E 008°45'1111.2
2015-May-16 07:33N 44°02' E 008°49'1 1.3
2015-May-16 06:33N 44°03' E 008°49'1 1.3
2015-May-16 05:33N 44°05' E 008°49'1 1.4
2015-May-16 04:33N 44°06' E 008°49'1 1.4
2015-May-16 03:33N 44°08' E 008°49'1 1.3
2015-May-16 02:33N 44°09' E 008°48'1 1.3
2015-May-16 01:33N 44°10' E 008°48'1 1.1
2015-May-16 00:33N 44°11' E 008°48'1 0.7
2015-May-15 23:33N 44°12' E 008°48'1 0.6
2015-May-15 22:33N 44°13' E 008°49'0 0.5
2015-May-15 21:33N 44°13' E 008°49'1 0.8
2015-May-15 20:33N 44°13' E 008°50'1 1.0
2015-May-15 19:33N 44°13' E 008°51'1 0.9
2015-May-15 18:33N 44°13' E 008°53'6 6.0
2015-May-15 17:33N 44°07' E 008°56'1515.1
2015-May-15 16:33N 43°55' E 009°09'1414.4
2015-May-15 15:33N 43°49' E 009°27'1414.3
2015-May-15 14:33N 43°43' E 009°45'9 9.3
2015-May-15 13:33N 43°36' E 009°54'1313.3
2015-May-15 12:33N 43°30' E 010°10'7 7.2
2015-May-15 11:33N 43°34' E 010°18'1 0.5
2015-May-15 10:29N 43°35' E 010°18'0 0.0
2015-May-15 09:31N 43°35' E 010°18'0 0.0
2015-May-15 08:31N 43°35' E 010°18'0 0.0
2015-May-15 07:31N 43°35' E 010°18'0 0.0
2015-May-15 06:31N 43°35' E 010°18'0 0.0
2015-May-15 05:31N 43°35' E 010°18'0 0.0
2015-May-15 04:31N 43°35' E 010°18'0 0.0
2015-May-15 03:31N 43°35' E 010°18'0 0.0
2015-May-15 02:24N 43°35' E 010°18'0 0.0
2015-May-15 01:33N 43°35' E 010°18'0 0.0
2015-May-15 00:33N 43°35' E 010°18'0 0.0
2015-May-14 23:33N 43°35' E 010°18'0 0.0
2015-May-14 22:33N 43°35' E 010°18'0 0.0
2015-May-14 21:31N 43°35' E 010°18'0 0.0
2015-May-14 20:33N 43°35' E 010°18'0 0.0
2015-May-14 19:33N 43°35' E 010°18'0 0.0
2015-May-14 18:32N 43°35' E 010°18'  

Dump ship's entire track history